createdAt,value
2022-09-09T00:00:38.095Z,20.32
2022-09-09T00:03:46.337Z,20.28
2022-09-09T00:06:36.874Z,20.25
2022-09-09T00:09:27.538Z,20.26
2022-09-09T00:12:19.151Z,20.23
2022-09-09T00:15:21.047Z,20.23
2022-09-09T00:18:25.553Z,20.25
2022-09-09T00:21:18.860Z,20.26
2022-09-09T00:24:17.200Z,20.25
2022-09-09T00:27:08.089Z,20.23
2022-09-09T00:30:15.246Z,20.19
2022-09-09T00:33:13.984Z,20.19
2022-09-09T00:36:00.816Z,20.21
2022-09-09T00:38:50.370Z,20.25
2022-09-09T00:42:09.396Z,20.26
2022-09-09T00:45:13.215Z,20.20
2022-09-09T00:48:03.949Z,20.20
2022-09-09T00:51:01.870Z,20.21
2022-09-09T00:54:08.341Z,20.20
2022-09-09T00:57:15.207Z,20.18
2022-09-09T01:00:21.385Z,20.15
2022-09-09T01:03:15.977Z,20.16
2022-09-09T01:06:16.428Z,20.15
2022-09-09T01:09:25.042Z,20.14
2022-09-09T01:12:16.827Z,20.17
2022-09-09T01:15:18.894Z,20.15
2022-09-09T01:18:14.846Z,20.13
2022-09-09T01:21:34.186Z,20.12
2022-09-09T01:24:48.999Z,20.12
2022-09-09T01:27:49.168Z,20.11
2022-09-09T01:30:39.116Z,20.10
2022-09-09T01:33:26.823Z,20.10
2022-09-09T01:36:15.930Z,20.08
2022-09-09T01:39:06.312Z,20.10
2022-09-09T01:41:54.127Z,20.06
2022-09-09T01:44:39.815Z,20.08
2022-09-09T01:47:26.394Z,20.07
2022-09-09T01:50:21.828Z,20.05
2022-09-09T01:53:07.827Z,20.05
2022-09-09T01:56:05.899Z,20.01
2022-09-09T01:59:16.922Z,20.04
2022-09-09T02:02:19.933Z,20.04
2022-09-09T02:05:33.009Z,20.01
2022-09-09T02:08:30.020Z,20.01
2022-09-09T02:11:24.096Z,20.00
2022-09-09T02:14:26.176Z,19.98
2022-09-09T02:17:15.341Z,20.00
2022-09-09T02:20:18.057Z,19.98
2022-09-09T02:23:16.383Z,19.97
2022-09-09T02:26:05.142Z,19.96
2022-09-09T02:28:52.266Z,19.98
2022-09-09T02:31:39.241Z,19.97
2022-09-09T02:34:32.851Z,19.85
2022-09-09T02:37:21.723Z,19.81
2022-09-09T02:40:13.366Z,19.80
2022-09-09T02:43:02.139Z,19.80
2022-09-09T02:45:54.978Z,19.86
2022-09-09T02:48:57.631Z,19.91
2022-09-09T02:52:03.220Z,19.91
2022-09-09T02:54:50.670Z,19.88
2022-09-09T02:57:38.324Z,19.85
2022-09-09T03:00:27.258Z,19.83
2022-09-09T03:03:17.045Z,19.81
2022-09-09T03:06:02.523Z,19.81
2022-09-09T03:08:49.789Z,19.78
2022-09-09T03:11:40.593Z,19.75
2022-09-09T03:14:26.887Z,19.70
2022-09-09T03:17:12.923Z,19.70
2022-09-09T03:20:05.446Z,19.68
2022-09-09T03:22:51.329Z,19.66
2022-09-09T03:25:37.697Z,19.67
2022-09-09T03:28:24.297Z,19.70
2022-09-09T03:31:12.702Z,19.68
2022-09-09T03:34:00.346Z,19.67
2022-09-09T03:36:50.286Z,19.65
2022-09-09T03:39:35.632Z,19.68
2022-09-09T03:42:21.759Z,19.71
2022-09-09T03:45:11.788Z,19.70
2022-09-09T03:48:01.836Z,19.70
2022-09-09T03:50:50.818Z,19.67
2022-09-09T03:53:39.047Z,19.71
2022-09-09T03:56:25.506Z,19.77
2022-09-09T03:59:11.904Z,19.73
2022-09-09T04:01:58.451Z,19.79
2022-09-09T04:04:43.771Z,19.83
2022-09-09T04:07:29.725Z,19.84
2022-09-09T04:10:16.795Z,19.86
2022-09-09T04:13:04.498Z,19.86
2022-09-09T04:15:55.418Z,19.85
2022-09-09T04:18:42.046Z,19.87
2022-09-09T04:21:27.625Z,19.91
2022-09-09T04:24:13.186Z,19.94
2022-09-09T04:26:59.945Z,19.93
2022-09-09T04:29:46.061Z,19.94
2022-09-09T04:32:34.276Z,20.01
2022-09-09T04:35:21.135Z,20.04
2022-09-09T04:38:10.529Z,20.04
2022-09-09T04:40:58.104Z,20.08
2022-09-09T04:43:44.380Z,20.08
2022-09-09T04:46:32.350Z,20.08
2022-09-09T04:49:17.432Z,20.10
2022-09-09T04:52:04.313Z,20.08
2022-09-09T04:54:52.168Z,20.11
2022-09-09T04:57:37.548Z,20.10
2022-09-09T05:00:22.667Z,20.12
2022-09-09T05:03:09.869Z,20.11
2022-09-09T05:06:05.170Z,20.12
2022-09-09T05:08:50.703Z,20.11
2022-09-09T05:11:39.778Z,20.09
2022-09-09T05:14:31.156Z,20.07
2022-09-09T05:17:18.930Z,20.05
2022-09-09T05:20:09.645Z,20.06
2022-09-09T05:22:56.309Z,20.04
2022-09-09T05:25:44.596Z,20.03
2022-09-09T05:28:30.226Z,20.01
2022-09-09T05:31:18.585Z,20.01
2022-09-09T05:34:07.487Z,19.96
2022-09-09T05:36:54.731Z,19.96
2022-09-09T05:39:41.705Z,19.96
2022-09-09T05:42:31.680Z,19.93
2022-09-09T05:45:17.224Z,19.93
2022-09-09T05:48:02.935Z,19.92
2022-09-09T05:50:54.205Z,19.90
2022-09-09T05:53:40.233Z,19.90
2022-09-09T05:56:28.676Z,19.92
2022-09-09T05:59:15.967Z,19.90
2022-09-09T06:02:01.629Z,19.90
2022-09-09T06:04:55.650Z,19.89
2022-09-09T06:07:45.715Z,19.88
2022-09-09T06:10:32.027Z,19.86
2022-09-09T06:13:17.431Z,19.88
2022-09-09T06:16:03.514Z,19.86
2022-09-09T06:18:50.147Z,19.84
2022-09-09T06:21:38.056Z,19.89
2022-09-09T06:24:26.040Z,19.89
2022-09-09T06:27:11.861Z,19.88
2022-09-09T06:29:57.011Z,19.88
2022-09-09T06:32:43.848Z,19.87
2022-09-09T06:35:29.699Z,19.86
2022-09-09T06:38:15.276Z,19.85
2022-09-09T06:41:02.907Z,19.86
2022-09-09T06:43:49.211Z,19.86
2022-09-09T06:46:36.776Z,19.84
2022-09-09T06:49:22.889Z,19.83
2022-09-09T06:52:10.403Z,19.83
2022-09-09T06:54:56.497Z,19.82
2022-09-09T06:57:42.148Z,19.82
2022-09-09T07:00:33.585Z,19.86
2022-09-09T07:03:19.065Z,19.85
2022-09-09T07:06:04.976Z,19.83
2022-09-09T07:08:57.391Z,19.84
2022-09-09T07:11:51.756Z,19.89
2022-09-09T07:14:39.023Z,19.85
2022-09-09T07:17:29.302Z,19.85
2022-09-09T07:20:16.444Z,19.86
2022-09-09T07:23:01.916Z,19.91
2022-09-09T07:25:48.549Z,19.89
2022-09-09T07:28:35.766Z,19.88
2022-09-09T07:31:27.607Z,19.91
2022-09-09T07:34:13.893Z,19.93
2022-09-09T07:37:00.179Z,19.97
2022-09-09T07:39:46.205Z,19.97
2022-09-09T07:42:32.530Z,20.00
2022-09-09T07:45:17.876Z,20.03
2022-09-09T07:48:04.166Z,20.05
2022-09-09T07:50:49.466Z,20.06
2022-09-09T07:53:37.196Z,20.08
2022-09-09T07:56:24.251Z,20.08
2022-09-09T07:59:11.338Z,20.08
2022-09-09T08:01:59.492Z,20.08
2022-09-09T08:04:48.421Z,20.03
2022-09-09T08:07:35.415Z,20.04
2022-09-09T08:10:20.560Z,20.06
2022-09-09T08:13:17.918Z,20.09
2022-09-09T08:16:09.517Z,20.09
2022-09-09T08:18:56.104Z,20.11
2022-09-09T08:21:42.193Z,20.12
2022-09-09T08:24:28.336Z,20.09
2022-09-09T08:27:13.958Z,20.11
2022-09-09T08:29:59.961Z,20.12
2022-09-09T08:32:47.257Z,20.13
2022-09-09T08:35:34.849Z,20.15
2022-09-09T08:38:22.131Z,20.16
2022-09-09T08:41:41.309Z,20.17
2022-09-09T08:44:56.917Z,20.15
2022-09-09T08:47:48.117Z,20.16
2022-09-09T08:50:39.680Z,20.18
2022-09-09T08:53:45.634Z,20.20
2022-09-09T08:56:33.719Z,20.18
2022-09-09T08:59:20.504Z,20.18
2022-09-09T09:02:21.650Z,20.14
2022-09-09T09:05:34.148Z,20.18
2022-09-09T09:08:23.580Z,20.18
2022-09-09T09:11:09.480Z,20.19
2022-09-09T09:14:06.584Z,20.18
2022-09-09T09:17:04.641Z,20.18
2022-09-09T09:19:51.467Z,20.19
2022-09-09T09:22:47.533Z,20.19
2022-09-09T09:25:42.259Z,20.18
2022-09-09T09:28:32.529Z,20.20
2022-09-09T09:31:27.777Z,20.21
2022-09-09T09:34:13.467Z,20.22
2022-09-09T09:37:02.837Z,20.22
2022-09-09T09:40:06.518Z,20.22
2022-09-09T09:42:57.271Z,20.23
2022-09-09T09:46:06.971Z,20.25
2022-09-09T09:49:06.474Z,20.26
2022-09-09T09:51:53.628Z,20.25
2022-09-09T09:54:43.243Z,20.25
2022-09-09T09:57:32.211Z,20.26
2022-09-09T10:00:24.298Z,20.26
2022-09-09T10:03:38.680Z,20.26
2022-09-09T10:06:36.055Z,20.25
2022-09-09T10:09:29.985Z,20.27
2022-09-09T10:12:49.935Z,20.28
2022-09-09T10:16:10.850Z,20.27
2022-09-09T10:19:00.080Z,20.26
2022-09-09T10:21:55.636Z,20.27
2022-09-09T10:24:47.336Z,20.28
2022-09-09T10:28:00.581Z,20.28
2022-09-09T10:31:06.137Z,20.26
2022-09-09T10:34:01.830Z,20.28
2022-09-09T10:36:51.984Z,20.27
2022-09-09T10:39:43.008Z,20.26
2022-09-09T10:42:32.538Z,20.26
2022-09-09T10:45:45.681Z,20.26
2022-09-09T10:48:58.962Z,20.26
2022-09-09T10:51:56.312Z,20.27
2022-09-09T10:55:04.044Z,20.27
2022-09-09T10:57:55.310Z,20.30
2022-09-09T11:00:57.447Z,20.32
2022-09-09T11:03:49.377Z,20.32
2022-09-09T11:06:43.681Z,20.31
2022-09-09T11:09:34.343Z,20.29
2022-09-09T11:12:21.413Z,20.27
2022-09-09T11:15:20.097Z,20.26
2022-09-09T11:18:11.064Z,20.28
2022-09-09T11:21:02.746Z,20.28
2022-09-09T11:23:57.109Z,20.26
2022-09-09T11:26:58.530Z,20.29
2022-09-09T11:30:38.108Z,20.29
2022-09-09T11:33:53.396Z,20.28
2022-09-09T11:36:47.744Z,20.28
2022-09-09T11:39:47.571Z,20.30
2022-09-09T11:42:33.107Z,20.27
2022-09-09T11:45:30.262Z,20.29
2022-09-09T11:48:33.686Z,20.28
2022-09-09T11:51:22.045Z,20.28
2022-09-09T11:54:31.160Z,20.28
2022-09-09T11:57:49.482Z,20.29
2022-09-09T12:00:42.927Z,20.27
2022-09-09T12:03:51.392Z,20.26
2022-09-09T12:06:51.850Z,20.28
2022-09-09T12:09:49.540Z,20.31
2022-09-09T12:12:43.161Z,20.30
2022-09-09T12:15:30.346Z,20.30
2022-09-09T12:18:23.620Z,20.28
2022-09-09T12:21:17.775Z,20.29
2022-09-09T12:24:19.290Z,20.30
2022-09-09T12:27:29.843Z,20.30
2022-09-09T12:30:17.084Z,20.30
2022-09-09T12:33:14.293Z,20.31
2022-09-09T12:36:01.679Z,20.37
2022-09-09T12:38:48.048Z,20.39
2022-09-09T12:41:33.415Z,20.41
2022-09-09T12:44:18.803Z,20.42
2022-09-09T12:47:05.037Z,20.46
2022-09-09T12:49:51.926Z,20.49
2022-09-09T12:52:39.930Z,20.51
2022-09-09T12:55:37.885Z,20.52
2022-09-09T12:58:23.693Z,20.54
2022-09-09T13:01:22.589Z,20.58
2022-09-09T13:04:22.961Z,20.59
2022-09-09T13:07:11.043Z,20.60
2022-09-09T13:09:56.772Z,20.62
2022-09-09T13:12:43.787Z,20.63
2022-09-09T13:15:30.831Z,20.66
2022-09-09T13:18:16.271Z,20.69
2022-09-09T13:21:01.900Z,20.69
2022-09-09T13:23:53.229Z,20.73
2022-09-09T13:29:25.355Z,20.75
2022-09-09T13:32:18.282Z,20.80
2022-09-09T13:35:04.247Z,20.83
2022-09-09T13:37:49.898Z,20.88
2022-09-09T13:40:35.533Z,20.90
2022-09-09T13:43:24.126Z,20.92
2022-09-09T13:46:31.256Z,20.94
2022-09-09T13:49:16.542Z,20.93
2022-09-09T13:52:25.281Z,20.95
2022-09-09T13:55:11.142Z,20.96
2022-09-09T13:58:04.195Z,21.00
2022-09-09T14:00:50.951Z,21.00
2022-09-09T14:03:36.151Z,21.03
2022-09-09T14:06:22.975Z,21.03
2022-09-09T14:09:12.541Z,21.06
2022-09-09T14:11:58.780Z,21.04
2022-09-09T14:14:44.055Z,21.03
2022-09-09T14:17:32.229Z,21.07
2022-09-09T14:20:18.711Z,21.09
2022-09-09T14:23:04.092Z,21.11
2022-09-09T14:25:50.091Z,21.10
2022-09-09T14:28:54.397Z,21.10
2022-09-09T14:31:41.300Z,21.13
2022-09-09T14:34:26.909Z,21.12
2022-09-09T14:37:12.532Z,21.14
2022-09-09T14:39:58.801Z,21.14
2022-09-09T14:42:44.210Z,21.15
2022-09-09T14:45:29.529Z,21.14
2022-09-09T14:48:16.350Z,21.18
2022-09-09T14:51:17.292Z,21.16
2022-09-09T14:54:03.576Z,21.16
2022-09-09T14:56:49.239Z,21.20
2022-09-09T14:59:35.470Z,21.20
2022-09-09T15:02:22.839Z,21.17
2022-09-09T15:05:09.512Z,21.23
2022-09-09T15:07:54.918Z,21.22
2022-09-09T15:10:40.749Z,21.22
2022-09-09T15:13:26.804Z,21.21
2022-09-09T15:16:17.242Z,21.25
2022-09-09T15:19:03.682Z,21.25
2022-09-09T15:21:48.856Z,21.27
2022-09-09T15:24:34.640Z,21.29
2022-09-09T15:27:20.052Z,21.28
2022-09-09T15:30:06.052Z,21.27
2022-09-09T15:32:53.969Z,21.26
2022-09-09T15:35:41.372Z,21.28
2022-09-09T15:38:27.962Z,21.29
2022-09-09T15:41:15.005Z,21.28
2022-09-09T15:44:04.197Z,21.28
2022-09-09T15:46:51.211Z,21.27
2022-09-09T15:49:36.636Z,21.27
2022-09-09T15:52:21.953Z,21.29
2022-09-09T15:55:09.249Z,21.31
2022-09-09T15:57:56.058Z,21.30
2022-09-09T16:00:41.628Z,21.32
2022-09-09T16:03:26.958Z,21.31
2022-09-09T16:06:12.670Z,21.31
2022-09-09T16:08:59.357Z,21.31
2022-09-09T16:11:45.424Z,21.31
2022-09-09T16:14:37.985Z,21.32
2022-09-09T16:17:23.446Z,21.32
2022-09-09T16:20:09.719Z,21.32
2022-09-09T16:22:54.994Z,21.33
2022-09-09T16:25:44.338Z,21.35
2022-09-09T16:28:30.537Z,21.34
2022-09-09T16:31:19.177Z,21.34
2022-09-09T16:34:04.960Z,21.34
2022-09-09T16:36:50.541Z,21.38
2022-09-09T16:39:36.749Z,21.38
2022-09-09T16:42:22.082Z,21.34
2022-09-09T16:45:07.928Z,21.34
2022-09-09T16:47:53.688Z,21.35
2022-09-09T16:50:40.251Z,21.37
2022-09-09T16:53:26.283Z,21.36
2022-09-09T16:56:21.238Z,21.35
2022-09-09T16:59:09.534Z,21.38
2022-09-09T17:01:55.501Z,21.38
2022-09-09T17:04:41.827Z,21.39
2022-09-09T17:07:27.106Z,21.40
2022-09-09T17:10:12.682Z,21.41
2022-09-09T17:12:58.439Z,21.41
2022-09-09T17:15:43.897Z,21.38
2022-09-09T17:18:29.889Z,21.37
2022-09-09T17:21:19.307Z,21.36
2022-09-09T17:24:05.466Z,21.35
2022-09-09T17:26:50.710Z,21.36
2022-09-09T17:29:36.949Z,21.35
2022-09-09T17:32:22.254Z,21.33
2022-09-09T17:35:07.823Z,21.35
2022-09-09T17:37:55.560Z,21.28
2022-09-09T17:40:40.770Z,21.30
2022-09-09T17:43:26.008Z,21.32
2022-09-09T17:46:23.198Z,21.32
2022-09-09T17:49:11.580Z,21.30
2022-09-09T17:51:57.541Z,21.32
2022-09-09T17:54:42.928Z,21.32
2022-09-09T17:57:29.213Z,21.38
2022-09-09T18:00:15.136Z,21.36
2022-09-09T18:03:05.620Z,21.39
2022-09-09T18:05:51.257Z,21.43
2022-09-09T18:08:37.184Z,21.44
2022-09-09T18:11:24.669Z,21.41
2022-09-09T18:14:13.305Z,21.38
2022-09-09T18:17:01.458Z,21.39
2022-09-09T18:19:46.580Z,21.36
2022-09-09T18:22:34.144Z,21.39
2022-09-09T18:25:19.545Z,21.43
2022-09-09T18:28:05.512Z,21.43
2022-09-09T18:30:50.995Z,21.42
2022-09-09T18:33:41.978Z,21.40
2022-09-09T18:36:34.140Z,21.45
2022-09-09T18:39:21.117Z,21.47
2022-09-09T18:42:06.817Z,21.42
2022-09-09T18:44:52.430Z,21.39
2022-09-09T18:47:37.829Z,21.35
2022-09-09T18:50:23.589Z,21.39
2022-09-09T18:53:11.121Z,21.36
2022-09-09T18:56:06.784Z,21.37
2022-09-09T18:58:53.316Z,21.38
2022-09-09T19:01:38.977Z,21.36
2022-09-09T19:04:25.516Z,21.37
2022-09-09T19:07:11.568Z,21.35
2022-09-09T19:09:57.144Z,21.33
2022-09-09T19:12:42.828Z,21.35
2022-09-09T19:15:29.700Z,21.36
2022-09-09T19:18:15.343Z,21.36
2022-09-09T19:21:17.379Z,21.38
2022-09-09T19:24:06.546Z,21.35
2022-09-09T19:26:55.526Z,21.36
2022-09-09T19:29:42.957Z,21.36
2022-09-09T19:32:53.321Z,21.37
2022-09-09T19:35:34.628Z,21.33
2022-09-09T19:38:20.125Z,21.34
2022-09-09T19:41:17.548Z,21.34
2022-09-09T19:44:06.393Z,21.28
2022-09-09T19:46:52.125Z,21.33
2022-09-09T19:49:37.943Z,21.33
2022-09-09T19:52:23.374Z,21.33
2022-09-09T19:55:09.115Z,21.34
2022-09-09T19:57:54.989Z,21.35
2022-09-09T20:00:40.775Z,21.34
2022-09-09T20:03:26.140Z,21.36
2022-09-09T20:06:14.468Z,21.36
2022-09-09T20:09:00.491Z,21.35
2022-09-09T20:11:47.839Z,21.33
2022-09-09T20:14:38.676Z,21.32
2022-09-09T20:17:25.069Z,21.31
2022-09-09T20:20:10.790Z,21.29
2022-09-09T20:22:57.443Z,21.30
2022-09-09T20:25:43.525Z,21.31
2022-09-09T20:28:29.881Z,21.29
2022-09-09T20:31:22.456Z,21.27
2022-09-09T20:34:11.121Z,21.28
2022-09-09T20:36:57.647Z,21.26
2022-09-09T20:39:43.009Z,21.25
2022-09-09T20:42:28.356Z,21.22
2022-09-09T20:45:16.222Z,21.23
2022-09-09T20:48:01.545Z,21.22
2022-09-09T20:50:46.723Z,21.26
2022-09-09T20:53:33.312Z,21.24
2022-09-09T20:56:20.388Z,21.23
2022-09-09T20:59:07.601Z,21.21
2022-09-09T21:01:54.387Z,21.21
2022-09-09T21:04:40.130Z,21.19
2022-09-09T21:07:25.238Z,21.16
2022-09-09T21:10:11.164Z,21.10
2022-09-09T21:12:56.304Z,21.10
2022-09-09T21:15:42.361Z,21.04
2022-09-09T21:18:28.991Z,21.04
2022-09-09T21:21:15.319Z,20.99
2022-09-09T21:24:00.874Z,20.96
2022-09-09T21:26:46.007Z,20.96
2022-09-09T21:29:31.538Z,20.95
2022-09-09T21:32:18.028Z,20.90
2022-09-09T21:35:03.960Z,20.91
2022-09-09T21:37:49.638Z,20.89
2022-09-09T21:40:38.637Z,20.90
2022-09-09T21:43:24.016Z,20.87
2022-09-09T21:46:10.948Z,20.81
2022-09-09T21:48:58.238Z,20.83
2022-09-09T21:51:43.748Z,20.84
2022-09-09T21:54:32.080Z,20.82
2022-09-09T21:57:20.672Z,20.77
2022-09-09T22:00:12.742Z,20.72
2022-09-09T22:03:02.945Z,20.71
2022-09-09T22:05:53.242Z,20.69
2022-09-09T22:08:39.255Z,20.67
2022-09-09T22:11:25.331Z,20.67
2022-09-09T22:14:10.578Z,20.64
2022-09-09T22:16:56.066Z,20.63
2022-09-09T22:19:41.076Z,20.61
2022-09-09T22:22:26.587Z,20.60
2022-09-09T22:25:12.192Z,20.60
2022-09-09T22:27:57.337Z,20.59
2022-09-09T22:30:43.153Z,20.59
2022-09-09T22:33:28.752Z,20.55
2022-09-09T22:36:14.165Z,20.56
2022-09-09T22:39:00.056Z,20.55
2022-09-09T22:41:45.328Z,20.54
2022-09-09T22:44:31.848Z,20.52
2022-09-09T22:47:17.370Z,20.52
2022-09-09T22:50:02.686Z,20.51
2022-09-09T22:52:48.019Z,20.49
2022-09-09T22:55:33.540Z,20.47
2022-09-09T22:58:18.877Z,20.49
2022-09-09T23:01:20.738Z,20.50
2022-09-09T23:04:05.872Z,20.45
2022-09-09T23:06:51.030Z,20.45
2022-09-09T23:09:36.162Z,20.43
2022-09-09T23:12:22.463Z,20.43
2022-09-09T23:15:10.207Z,20.40
2022-09-09T23:17:55.772Z,20.40
2022-09-09T23:20:41.671Z,20.42
2022-09-09T23:23:28.097Z,20.42
2022-09-09T23:26:20.924Z,20.41
2022-09-09T23:29:06.345Z,20.41
2022-09-09T23:31:51.685Z,20.39
2022-09-09T23:34:37.934Z,20.40
2022-09-09T23:37:23.163Z,20.38
2022-09-09T23:40:08.712Z,20.37
2022-09-09T23:42:55.315Z,20.36
2022-09-09T23:45:41.174Z,20.33
2022-09-09T23:48:28.217Z,20.35
2022-09-09T23:51:17.954Z,20.35
2022-09-09T23:54:05.254Z,20.37
2022-09-09T23:56:50.758Z,20.35
2022-09-09T23:59:35.995Z,20.36
